Time;durP1;ratioP1;P1;durP2;ratioP2;P2;SDS_P1;SDS_P2;PMS_P1;PMS_P2;Temp;Humidity;BMP_temperature;BMP_pressure;BME280_temperature;BME280_humidity;BME280_pressure;Samples;Min_cycle;Max_cycle;Signal;HPM_P1;HPM_P2
2021/07/10 00:00:28;;;;;;;;;;;;;;;28.32;40.97;100286.94;5112543;28;19984;-59
2021/07/10 00:02:54;;;;;;;;;;;;;;;28.31;41.07;100285.25;5094463;28;19919;-59
2021/07/10 00:05:20;;;;;;;;;;;;;;;28.28;41.11;100286.47;5093953;28;20465;-59
2021/07/10 00:07:46;;;;;;;;;;;;;;;28.27;41.15;100284.00;5112425;28;20476;-59
2021/07/10 00:10:13;;;;;;;;;;;;;;;28.26;41.06;100277.78;5112417;28;20308;-59
2021/07/10 00:12:39;;;;;;;;;;;;;;;28.25;41.16;100286.03;5112208;28;20068;-59
2021/07/10 00:15:05;;;;;;;;;;;;;;;28.25;41.20;100280.66;5112109;28;21002;-59
2021/07/10 00:17:31;;;;;;;;;;;;;;;28.23;40.86;100280.84;5112099;28;20026;-59
2021/07/10 00:19:57;;;;;;;;;;;;;;;28.23;41.18;100282.69;5112195;28;20010;-59
2021/07/10 00:22:23;;;;;;;;;;;;;;;28.20;41.46;100283.06;5112018;28;19923;-59
2021/07/10 00:24:48;;;;;;;;;;;;;;;28.18;41.47;100275.19;5112108;28;20422;-59
2021/07/10 00:27:14;;;;;;;;;;;;;;;28.16;41.43;100277.25;5112214;28;19923;-59
2021/07/10 00:29:40;;;;;;;;;;;;;;;28.11;41.37;100273.47;5111846;28;19924;-59
2021/07/10 00:32:06;;;;;;;;;;;;;;;28.13;41.71;100276.78;5093728;28;20454;-59
2021/07/10 00:34:32;;;;;;;;;;;;;;;28.12;41.51;100275.09;5111620;28;20116;-59
2021/07/10 00:36:58;;;;;;;;;;;;;;;28.10;41.84;100271.78;5111884;28;20418;-59
2021/07/10 00:39:23;;;;;;;;;;;;;;;28.09;41.77;100275.47;5111468;28;19998;-60
2021/07/10 00:41:49;;;;;;;;;;;;;;;28.06;41.94;100276.69;5111855;28;19924;-59
2021/07/10 00:44:15;;;;;;;;;;;;;;;28.05;42.08;100276.84;5111370;28;19924;-59
2021/07/10 00:46:41;;;;;;;;;;;;;;;28.05;42.05;100276.84;5092703;28;19923;-59
2021/07/10 00:49:07;;;;;;;;;;;;;;;28.04;42.08;100281.41;5111422;28;20384;-59
2021/07/10 00:51:33;;;;;;;;;;;;;;;28.03;42.05;100274.34;5111246;28;19923;-59
2021/07/10 00:53:59;;;;;;;;;;;;;;;28.03;42.31;100281.56;5111478;28;19947;-59
2021/07/10 00:56:24;;;;;;;;;;;;;;;28.01;42.09;100273.69;5111376;28;20289;-59
2021/07/10 00:58:50;;;;;;;;;;;;;;;28.02;42.35;100280.72;5093085;28;19924;-59
2021/07/10 01:01:16;;;;;;;;;;;;;;;28.00;42.27;100282.78;5093324;28;20409;-59
2021/07/10 01:03:44;;;;;;;;;;;;;;;27.99;42.36;100280.28;5110872;28;19923;-59
2021/07/10 01:06:12;;;;;;;;;;;;;;;27.99;42.47;100282.94;5111350;28;19923;-59
2021/07/10 01:08:37;;;;;;;;;;;;;;;28.00;42.50;100292.69;5111137;28;20036;-59
2021/07/10 01:11:03;;;;;;;;;;;;;;;28.00;42.54;100295.38;5111261;28;19937;-59
2021/07/10 01:13:29;;;;;;;;;;;;;;;27.99;42.48;100299.91;5092938;28;20312;-59
2021/07/10 01:15:55;;;;;;;;;;;;;;;28.00;42.56;100298.06;5111395;28;19923;-59
2021/07/10 01:18:20;;;;;;;;;;;;;;;28.00;42.26;100300.75;5111166;28;20066;-59
2021/07/10 01:20:46;;;;;;;;;;;;;;;28.01;42.30;100297.84;5111006;28;19920;-58
2021/07/10 01:23:12;;;;;;;;;;;;;;;28.01;42.48;100291.69;5111126;28;19954;-58
2021/07/10 01:25:38;;;;;;;;;;;;;;;28.02;42.45;100298.69;5110807;28;19924;-59
2021/07/10 01:28:04;;;;;;;;;;;;;;;28.03;42.31;100300.38;5110977;28;19931;-59
2021/07/10 01:30:30;;;;;;;;;;;;;;;28.04;42.62;100299.34;5110807;28;19923;-59
2021/07/10 01:32:55;;;;;;;;;;;;;;;28.08;42.37;100296.13;5110990;28;20425;-59
2021/07/10 01:35:21;;;;;;;;;;;;;;;28.13;42.34;100304.47;5075877;28;19930;-59
2021/07/10 01:37:47;;;;;;;;;;;;;;;28.25;42.17;100296.75;5110544;28;19997;-58
2021/07/10 01:40:14;;;;;;;;;;;;;;;28.46;41.68;100299.53;5110834;28;19923;-58
2021/07/10 01:42:40;;;;;;;;;;;;;;;28.49;41.60;100312.56;5110719;28;19923;-58
2021/07/10 01:45:05;;;;;;;;;;;;;;;28.42;41.55;100300.91;5110570;28;19939;-59
2021/07/10 01:47:31;;;;;;;;;;;;;;;28.40;41.69;100294.91;5110582;28;20010;-58
2021/07/10 01:49:57;;;;;;;;;;;;;;;28.39;41.64;100298.59;5092449;28;19920;-60
2021/07/10 01:52:23;;;;;;;;;;;;;;;28.41;41.95;100304.63;5110721;28;19931;-59
2021/07/10 01:54:48;;;;;;;;;;;;;;;28.55;41.37;100301.06;5092252;28;20026;-59
2021/07/10 01:57:14;;;;;;;;;;;;;;;28.88;40.76;100298.78;5075362;28;20014;-58
2021/07/10 01:59:41;;;;;;;;;;;;;;;29.10;40.47;100292.38;5110343;28;19967;-58
2021/07/10 02:02:07;;;;;;;;;;;;;;;29.46;39.80;100295.81;5092421;28;19970;-59
2021/07/10 02:04:33;;;;;;;;;;;;;;;29.39;39.77;100297.63;5110075;28;19977;-59
2021/07/10 02:06:59;;;;;;;;;;;;;;;29.25;40.08;100289.66;5058619;28;20300;-59
2021/07/10 02:09:25;;;;;;;;;;;;;;;29.18;40.30;100291.41;5110330;28;19924;-59
2021/07/10 02:11:51;;;;;;;;;;;;;;;29.45;39.82;100282.53;5110341;28;19977;-59
2021/07/10 02:14:18;;;;;;;;;;;;;;;29.93;39.08;100284.38;5092231;28;20277;-59
2021/07/10 02:16:44;;;;;;;;;;;;;;;30.04;38.99;100282.97;5092143;28;19976;-58
2021/07/10 02:19:10;;;;;;;;;;;;;;;29.83;39.17;100283.06;5092049;28;20463;-58
2021/07/10 02:21:36;;;;;;;;;;;;;;;29.70;39.42;100293.72;5110250;28;20015;-59
2021/07/10 02:24:03;;;;;;;;;;;;;;;29.59;39.70;100295.09;5110164;28;20389;-59
2021/07/10 02:26:29;;;;;;;;;;;;;;;29.68;39.46;100291.22;5110104;28;19976;-60
2021/07/10 02:28:55;;;;;;;;;;;;;;;29.62;39.63;100289.31;5110194;28;20022;-59
2021/07/10 02:31:21;;;;;;;;;;;;;;;29.56;39.68;100287.41;5110244;28;20308;-58
2021/07/10 02:33:47;;;;;;;;;;;;;;;29.54;40.02;100285.94;5109925;28;19924;-58
2021/07/10 02:36:13;;;;;;;;;;;;;;;29.50;39.88;100282.81;5110083;28;19934;-59
2021/07/10 02:38:38;;;;;;;;;;;;;;;29.40;39.91;100266.16;5110043;28;19931;-58
2021/07/10 02:41:04;;;;;;;;;;;;;;;29.93;39.33;100284.38;5110188;28;19923;-59
2021/07/10 02:43:30;;;;;;;;;;;;;;;30.47;38.54;100278.19;5109810;28;19924;-60
2021/07/10 02:45:56;;;;;;;;;;;;;;;31.02;37.53;100273.59;5110176;28;19927;-59
2021/07/10 02:48:22;;;;;;;;;;;;;;;31.57;36.70;100277.78;5110250;28;19923;-59
2021/07/10 02:50:47;;;;;;;;;;;;;;;32.03;35.65;100279.31;5091793;28;19927;-59
2021/07/10 02:53:14;;;;;;;;;;;;;;;32.45;35.05;100279.81;5110087;28;20400;-57
2021/07/10 02:55:39;;;;;;;;;;;;;;;32.23;35.20;100273.06;5109780;28;20085;-58
2021/07/10 02:58:05;;;;;;;;;;;;;;;32.34;34.76;100267.78;5109904;28;20014;-58
2021/07/10 03:00:31;;;;;;;;;;;;;;;32.84;34.40;100263.38;5109790;28;19930;-58
2021/07/10 03:02:57;;;;;;;;;;;;;;;33.22;33.72;100270.59;5109893;28;19926;-58
2021/07/10 03:05:23;;;;;;;;;;;;;;;33.44;32.87;100267.28;5091660;28;19969;-58
2021/07/10 03:07:49;;;;;;;;;;;;;;;33.13;33.48;100263.81;5091387;28;19928;-58
2021/07/10 03:10:16;;;;;;;;;;;;;;;32.65;34.21;100266.22;5113420;28;19927;-57
2021/07/10 03:12:41;;;;;;;;;;;;;;;32.56;34.37;100276.41;5113392;28;20022;-59
2021/07/10 03:15:07;;;;;;;;;;;;;;;32.30;35.02;100265.72;5113345;28;20031;-59
2021/07/10 03:17:33;;;;;;;;;;;;;;;32.03;35.42;100263.09;5113262;28;20281;-59
2021/07/10 03:19:59;;;;;;;;;;;;;;;31.80;35.83;100268.19;5113209;28;19923;-59
2021/07/10 03:22:24;;;;;;;;;;;;;;;31.84;35.84;100260.47;5113352;28;19923;-59
2021/07/10 03:24:50;;;;;;;;;;;;;;;32.30;35.30;100263.03;5112938;28;19924;-58
2021/07/10 03:27:16;;;;;;;;;;;;;;;32.71;34.33;100266.19;5113323;28;20619;-58
2021/07/10 03:29:42;;;;;;;;;;;;;;;33.31;33.55;100255.78;5112928;28;20416;-58
2021/07/10 03:32:08;;;;;;;;;;;;;;;33.81;32.57;100256.53;5113084;28;19919;-58
2021/07/10 03:34:33;;;;;;;;;;;;;;;34.28;32.18;100257.66;5112803;28;19931;-58
2021/07/10 03:36:59;;;;;;;;;;;;;;;34.66;31.43;100255.50;5112926;28;20318;-59
2021/07/10 03:39:25;;;;;;;;;;;;;;;34.56;31.49;100255.19;5112956;28;19930;-59
2021/07/10 03:41:51;;;;;;;;;;;;;;;34.22;32.23;100254.00;5112672;28;19985;-59
2021/07/10 03:44:17;;;;;;;;;;;;;;;34.16;32.20;100251.38;5112776;28;19962;-59
2021/07/10 03:46:45;;;;;;;;;;;;;;;34.24;32.46;100251.03;5112608;28;19924;-59
2021/07/10 03:49:11;;;;;;;;;;;;;;;34.28;32.25;100254.97;5112718;28;19923;-58
2021/07/10 03:51:37;;;;;;;;;;;;;;;33.73;33.11;100256.84;5112540;28;19928;-58
2021/07/10 03:54:03;;;;;;;;;;;;;;;33.29;33.86;100257.84;5094403;28;19985;-58
2021/07/10 03:56:29;;;;;;;;;;;;;;;33.18;33.84;100258.59;5112761;28;19923;-60
2021/07/10 03:58:54;;;;;;;;;;;;;;;34.03;32.96;100261.28;5112327;28;19924;-59
2021/07/10 04:01:20;;;;;;;;;;;;;;;34.82;31.30;100252.13;5112677;28;19924;-58
2021/07/10 04:03:46;;;;;;;;;;;;;;;35.44;30.65;100253.41;5112063;28;20444;-59
2021/07/10 04:06:11;;;;;;;;;;;;;;;35.93;29.76;100249.38;5112190;28;19928;-60
2021/07/10 04:08:37;;;;;;;;;;;;;;;36.32;29.30;100245.00;5094115;28;19976;-61
2021/07/10 04:11:03;;;;;;;;;;;;;;;36.53;28.89;100246.22;5094060;28;20350;-60
2021/07/10 04:13:29;;;;;;;;;;;;;;;36.35;28.98;100249.16;5093995;28;19923;-59
2021/07/10 04:15:55;;;;;;;;;;;;;;;35.95;29.53;100249.13;5111958;28;19919;-59
2021/07/10 04:18:21;;;;;;;;;;;;;;;35.49;30.38;100250.00;5094064;28;19923;-59
2021/07/10 04:20:47;;;;;;;;;;;;;;;34.91;30.89;100248.03;5111664;28;20429;-59
2021/07/10 04:23:12;;;;;;;;;;;;;;;34.45;31.93;100251.41;5112010;28;20450;-58
2021/07/10 04:25:38;;;;;;;;;;;;;;;34.18;31.98;100241.09;5093627;28;19924;-59
2021/07/10 04:28:04;;;;;;;;;;;;;;;33.93;32.54;100238.47;5112019;28;20343;-59
2021/07/10 04:30:30;;;;;;;;;;;;;;;33.91;32.61;100237.84;5111926;28;19984;-59
2021/07/10 04:32:56;;;;;;;;;;;;;;;34.71;31.62;100239.34;5093297;28;19952;-60
2021/07/10 04:35:22;;;;;;;;;;;;;;;35.80;29.90;100233.31;5111781;28;20360;-59
2021/07/10 04:37:48;;;;;;;;;;;;;;;36.49;28.97;100231.47;5111483;28;20039;-60
2021/07/10 04:40:13;;;;;;;;;;;;;;;37.01;28.08;100232.19;5111828;28;20362;-58
2021/07/10 04:42:39;;;;;;;;;;;;;;;37.22;27.75;100228.69;5111511;28;19927;-60
2021/07/10 04:45:05;;;;;;;;;;;;;;;36.76;28.21;100228.97;5111360;28;20407;-58
2021/07/10 04:47:31;;;;;;;;;;;;;;;36.91;28.14;100232.78;5111667;28;19923;-60
2021/07/10 04:49:57;;;;;;;;;;;;;;;37.52;27.49;100228.34;5092862;28;19927;-60
2021/07/10 04:52:23;;;;;;;;;;;;;;;37.97;26.59;100229.00;5111435;28;19927;-59
2021/07/10 04:54:49;;;;;;;;;;;;;;;38.33;26.08;100227.50;5111304;28;20384;-59
2021/07/10 04:57:14;;;;;;;;;;;;;;;38.62;25.72;100221.78;5111614;28;19926;-60
2021/07/10 04:59:40;;;;;;;;;;;;;;;38.91;25.64;100226.72;5111056;28;20022;-59
2021/07/10 05:02:06;;;;;;;;;;;;;;;38.81;25.65;100228.56;5093155;28;19963;-59
2021/07/10 05:04:32;;;;;;;;;;;;;;;37.48;27.22;100233.47;5110987;28;19930;-60
2021/07/10 05:06:57;;;;;;;;;;;;;;;36.45;28.64;100233.03;5111082;28;19925;-59
2021/07/10 05:09:24;;;;;;;;;;;;;;;35.69;29.75;100234.19;5111056;28;19924;-58
2021/07/10 05:11:50;;;;;;;;;;;;;;;35.16;30.65;100228.00;5110981;28;20320;-59
2021/07/10 05:14:16;;;;;;;;;;;;;;;34.81;30.95;100231.47;5111281;28;20016;-59
2021/07/10 05:16:42;;;;;;;;;;;;;;;35.50;30.47;100229.91;5092797;28;19924;-58
2021/07/10 05:19:09;;;;;;;;;;;;;;;36.84;28.37;100225.88;5110917;28;19931;-60
2021/07/10 05:21:34;;;;;;;;;;;;;;;38.68;25.99;100221.56;5110940;28;20042;-60
2021/07/10 05:24:00;;;;;;;;;;;;;;;39.86;24.38;100223.00;5092328;28;20413;-60
2021/07/10 05:26:27;;;;;;;;;;;;;;;41.23;22.77;100220.56;5110867;28;19928;-58
2021/07/10 05:28:53;;;;;;;;;;;;;;;42.17;21.76;100219.72;5110753;28;19946;-59
2021/07/10 05:31:18;;;;;;;;;;;;;;;42.68;20.81;100210.09;5110349;28;20396;-59
2021/07/10 05:33:44;;;;;;;;;;;;;;;43.05;20.62;100215.03;5092508;28;19931;-59
2021/07/10 05:36:10;;;;;;;;;;;;;;;43.37;20.41;100212.50;5075673;28;20010;-59
2021/07/10 05:38:36;;;;;;;;;;;;;;;43.55;19.86;100216.47;5111060;28;19935;-60
2021/07/10 05:41:02;;;;;;;;;;;;;;;43.68;19.70;100213.00;5110296;28;19924;-59
2021/07/10 05:43:28;;;;;;;;;;;;;;;43.82;19.39;100202.94;5092546;28;19924;-59
2021/07/10 05:45:54;;;;;;;;;;;;;;;43.88;19.23;100201.78;5110315;28;19928;-59
2021/07/10 05:48:19;;;;;;;;;;;;;;;43.68;19.65;100206.69;5110607;28;19927;-60
2021/07/10 05:50:45;;;;;;;;;;;;;;;43.54;19.95;100201.06;5110329;28;20362;-59
2021/07/10 05:53:11;;;;;;;;;;;;;;;43.36;20.06;100204.56;5092842;28;19927;-59
2021/07/10 05:55:37;;;;;;;;;;;;;;;43.16;19.99;100205.59;5110627;28;19923;-59
2021/07/10 05:58:03;;;;;;;;;;;;;;;42.96;20.08;100205.75;5110242;28;19920;-60
2021/07/10 06:00:30;;;;;;;;;;;;;;;42.71;20.38;100209.53;5110591;28;20022;-60
2021/07/10 06:02:57;;;;;;;;;;;;;;;42.31;21.06;100194.13;5110189;28;19930;-61
2021/07/10 06:05:22;;;;;;;;;;;;;;;41.63;21.42;100198.53;5110343;28;19982;-57
2021/07/10 06:07:48;;;;;;;;;;;;;;;40.96;22.36;100199.78;5110694;28;19963;-58
2021/07/10 06:10:14;;;;;;;;;;;;;;;40.44;23.03;100199.13;5110373;28;19992;-61
2021/07/10 06:12:40;;;;;;;;;;;;;;;40.01;23.71;100211.31;5110735;28;20393;-57
2021/07/10 06:15:08;;;;;;;;;;;;;;;39.62;24.16;100201.81;5110259;28;19965;-61
2021/07/10 06:17:34;;;;;;;;;;;;;;;39.30;24.59;100200.00;5092419;28;19930;-61
2021/07/10 06:20:00;;;;;;;;;;;;;;;39.05;24.99;100199.78;5109956;28;20304;-59
2021/07/10 06:22:26;;;;;;;;;;;;;;;38.82;25.05;100195.53;5075325;28;20388;-60
2021/07/10 06:25:11;;;;;;;;;;;;;;;38.61;25.06;100201.88;5109949;28;19924;-59
2021/07/10 06:27:57;;;;;;;;;;;;;;;38.42;25.71;100195.13;5110309;28;19931;-59
2021/07/10 06:30:46;;;;;;;;;;;;;;;38.31;25.75;100194.19;5110834;28;19943;-60
2021/07/10 06:33:36;;;;;;;;;;;;;;;38.20;25.74;100186.97;5082190;28;20070;-55
2021/07/10 06:36:22;;;;;;;;;;;;;;;38.03;26.12;100181.59;5110098;28;19928;-55
2021/07/10 06:39:08;;;;;;;;;;;;;;;37.95;26.03;100184.78;5110353;28;19923;-58
2021/07/10 06:41:39;;;;;;;;;;;;;;;37.88;26.03;100184.13;5091913;28;19923;-60
2021/07/10 06:44:05;;;;;;;;;;;;;;;37.78;26.18;100192.16;5111747;28;19920;-59
2021/07/10 06:46:31;;;;;;;;;;;;;;;37.73;26.47;100186.63;5113840;28;19931;-59
2021/07/10 06:48:57;;;;;;;;;;;;;;;37.66;26.51;100179.75;5113647;28;20299;-60
2021/07/10 06:51:22;;;;;;;;;;;;;;;37.62;26.42;100184.06;5113771;28;20089;-60
2021/07/10 06:53:48;;;;;;;;;;;;;;;37.62;26.48;100184.88;5113547;28;19923;-60
2021/07/10 06:56:14;;;;;;;;;;;;;;;37.55;26.49;100182.34;5113849;28;19923;-60
2021/07/10 06:58:39;;;;;;;;;;;;;;;37.47;26.76;100181.94;5113909;28;20034;-60
2021/07/10 07:01:05;;;;;;;;;;;;;;;37.45;26.91;100178.63;5113284;28;19924;-59
2021/07/10 07:03:32;;;;;;;;;;;;;;;37.40;27.09;100186.72;5113429;28;19931;-60
2021/07/10 07:05:57;;;;;;;;;;;;;;;37.33;26.95;100175.19;5113213;28;19927;-60
2021/07/10 07:08:23;;;;;;;;;;;;;;;37.32;26.99;100178.97;5113614;28;19930;-59
2021/07/10 07:10:49;;;;;;;;;;;;;;;37.32;27.23;100178.97;5113209;28;20461;-60
2021/07/10 07:13:15;;;;;;;;;;;;;;;37.29;27.23;100174.84;5113572;28;19924;-60
2021/07/10 07:15:41;;;;;;;;;;;;;;;37.30;27.13;100170.25;5113285;28;20289;-60
2021/07/10 07:18:07;;;;;;;;;;;;;;;37.29;27.20;100177.59;5113070;28;20018;-61
2021/07/10 07:20:33;;;;;;;;;;;;;;;37.25;27.32;100172.88;5095004;28;20018;-60
2021/07/10 07:22:59;;;;;;;;;;;;;;;37.24;27.23;100171.25;5112782;28;19919;-59
2021/07/10 07:25:25;;;;;;;;;;;;;;;37.22;27.33;100178.81;5112987;28;20281;-58
2021/07/10 07:27:51;;;;;;;;;;;;;;;36.97;27.61;100181.97;5112988;28;20281;-60
2021/07/10 07:30:17;;;;;;;;;;;;;;;36.38;28.29;100189.66;5112970;28;19924;-60
2021/07/10 07:32:43;;;;;;;;;;;;;;;35.98;28.91;100186.94;5113039;28;19931;-59
2021/07/10 07:35:09;;;;;;;;;;;;;;;35.65;29.53;100194.94;5094380;28;19923;-60
2021/07/10 07:37:35;;;;;;;;;;;;;;;35.35;29.70;100195.06;5112875;28;20004;-60
2021/07/10 07:40:03;;;;;;;;;;;;;;;35.26;29.98;100184.78;5094539;28;19930;-60
2021/07/10 07:42:29;;;;;;;;;;;;;;;35.22;30.03;100186.31;5112786;28;20002;-60
2021/07/10 07:44:55;;;;;;;;;;;;;;;35.31;29.83;100187.66;5112751;28;19924;-61
2021/07/10 07:47:21;;;;;;;;;;;;;;;35.42;29.67;100192.22;5112885;28;19924;-60
2021/07/10 07:49:48;;;;;;;;;;;;;;;35.39;29.71;100188.09;5112414;28;19924;-60
2021/07/10 07:52:14;;;;;;;;;;;;;;;35.20;29.73;100186.56;5094709;28;19916;-60
2021/07/10 07:54:40;;;;;;;;;;;;;;;35.13;29.98;100182.31;5112075;28;19924;-59
2021/07/10 07:57:05;;;;;;;;;;;;;;;35.31;29.69;100172.16;5112239;28;19992;-60
2021/07/10 07:59:31;;;;;;;;;;;;;;;35.39;29.81;100176.41;5112552;28;19924;-60
2021/07/10 08:01:57;;;;;;;;;;;;;;;35.30;29.79;100169.69;5112332;28;19968;-60
2021/07/10 08:04:23;;;;;;;;;;;;;;;35.05;30.20;100170.72;5112363;28;20262;-59
2021/07/10 08:06:49;;;;;;;;;;;;;;;35.05;29.93;100172.59;5112263;28;19977;-59
2021/07/10 08:09:15;;;;;;;;;;;;;;;35.09;29.89;100170.25;5112260;28;20234;-59
2021/07/10 08:11:40;;;;;;;;;;;;;;;35.15;29.76;100166.59;5112224;28;19931;-60
2021/07/10 08:14:06;;;;;;;;;;;;;;;35.19;29.63;100167.78;5111939;28;19924;-60
2021/07/10 08:16:32;;;;;;;;;;;;;;;35.18;29.36;100166.16;5112230;28;20352;-59
2021/07/10 08:18:58;;;;;;;;;;;;;;;35.17;29.17;100159.06;5112038;28;20464;-60
2021/07/10 08:21:26;;;;;;;;;;;;;;;35.03;29.09;100151.13;5112079;28;19924;-60
2021/07/10 08:23:53;;;;;;;;;;;;;;;34.93;29.21;100156.31;5111866;28;20408;-60
2021/07/10 08:26:19;;;;;;;;;;;;;;;34.70;29.62;100159.00;5093772;28;20022;-60
2021/07/10 08:28:44;;;;;;;;;;;;;;;34.64;29.58;100153.69;5112158;28;20023;-61
2021/07/10 08:31:10;;;;;;;;;;;;;;;34.65;29.48;100156.19;5093475;28;20370;-60
2021/07/10 08:33:36;;;;;;;;;;;;;;;34.70;29.34;100153.56;5111965;28;19923;-60
2021/07/10 08:36:02;;;;;;;;;;;;;;;34.74;29.36;100152.06;5111338;28;19926;-60
2021/07/10 08:38:27;;;;;;;;;;;;;;;34.75;29.34;100155.59;5111788;28;19924;-60
2021/07/10 08:40:53;;;;;;;;;;;;;;;34.76;29.36;100146.38;5111432;28;19924;-60
2021/07/10 08:43:19;;;;;;;;;;;;;;;34.75;29.35;100153.69;5111653;28;19919;-60
2021/07/10 08:45:46;;;;;;;;;;;;;;;34.75;29.18;100150.16;5111523;28;19976;-59
2021/07/10 08:48:11;;;;;;;;;;;;;;;34.75;29.58;100144.75;5111377;28;20015;-60
2021/07/10 08:50:37;;;;;;;;;;;;;;;34.68;29.72;100144.84;5093284;28;19973;-59
2021/07/10 08:53:03;;;;;;;;;;;;;;;34.65;29.75;100156.19;5111228;28;20038;-59
2021/07/10 08:55:29;;;;;;;;;;;;;;;34.53;29.74;100147.13;5111300;28;20461;-60
2021/07/10 08:57:54;;;;;;;;;;;;;;;34.40;29.71;100150.03;5111142;28;19930;-60
2021/07/10 09:00:22;;;;;;;;;;;;;;;34.30;30.18;100145.19;5111322;28;20388;-60
2021/07/10 09:02:49;;;;;;;;;;;;;;;34.26;30.30;100140.47;5093154;28;20741;-60
2021/07/10 09:05:14;;;;;;;;;;;;;;;34.23;30.38;100140.94;5110494;28;19924;-59
2021/07/10 09:07:59;;;;;;;;;;;;;;;34.16;30.16;100140.19;5110509;28;20025;-59
2021/07/10 09:10:35;;;;;;;;;;;;;;;34.08;30.21;100137.78;5111005;28;19920;-59
2021/07/10 09:13:01;;;;;;;;;;;;;;;34.02;30.11;100134.94;5110948;28;20079;-60
2021/07/10 09:15:27;;;;;;;;;;;;;;;34.01;30.24;100127.84;5110916;28;20072;-60
2021/07/10 09:17:53;;;;;;;;;;;;;;;34.03;30.27;100131.16;5110874;28;19923;-59
2021/07/10 09:20:20;;;;;;;;;;;;;;;34.07;30.18;100122.56;5110777;28;19919;-59
2021/07/10 09:22:46;;;;;;;;;;;;;;;34.10;30.09;100125.63;5110726;28;20095;-58
2021/07/10 09:25:21;;;;;;;;;;;;;;;34.01;30.19;100124.31;5092078;28;19923;-58
2021/07/10 09:27:53;;;;;;;;;;;;;;;34.01;30.07;100116.19;5110920;28;19924;-58
2021/07/10 09:30:31;;;;;;;;;;;;;;;34.04;30.09;100126.56;5092474;28;19919;-59
2021/07/10 09:33:17;;;;;;;;;;;;;;;34.11;30.42;100118.31;5110614;28;19923;-59
2021/07/10 09:35:52;;;;;;;;;;;;;;;34.05;30.06;100111.97;5110663;28;20313;-58
2021/07/10 09:38:22;;;;;;;;;;;;;;;34.04;30.16;100105.69;5092632;28;20170;-58
2021/07/10 09:41:05;;;;;;;;;;;;;;;34.12;30.38;100107.31;5110668;28;19976;-59
2021/07/10 09:43:32;;;;;;;;;;;;;;;34.14;30.53;100093.50;5110677;28;19944;-59
2021/07/10 09:45:59;;;;;;;;;;;;;;;34.13;30.11;100108.94;5110091;28;19931;-59
2021/07/10 09:48:32;;;;;;;;;;;;;;;34.16;30.51;100102.25;5110789;28;20483;-59
2021/07/10 09:51:17;;;;;;;;;;;;;;;34.20;30.26;100098.00;5092234;28;19931;-60
2021/07/10 09:53:56;;;;;;;;;;;;;;;34.19;30.40;100102.63;5110594;28;19987;-59
2021/07/10 09:56:22;;;;;;;;;;;;;;;34.16;30.11;100104.97;5110333;28;19923;-59
2021/07/10 09:58:47;;;;;;;;;;;;;;;34.19;29.98;100099.91;5110444;28;19923;-60
2021/07/10 10:01:32;;;;;;;;;;;;;;;34.19;29.71;100102.63;5110044;28;19923;-59
2021/07/10 10:04:01;;;;;;;;;;;;;;;34.11;29.65;100099.34;5109966;28;20031;-60
2021/07/10 10:06:32;;;;;;;;;;;;;;;34.02;29.79;100091.56;5091901;28;19930;-59
2021/07/10 10:09:02;;;;;;;;;;;;;;;34.13;29.67;100091.88;5091876;28;19970;-60
2021/07/10 10:11:46;;;;;;;;;;;;;;;34.13;29.53;100094.56;5110233;28;19963;-59
2021/07/10 10:14:12;;;;;;;;;;;;;;;34.00;29.87;100087.41;5109982;28;20032;-59
2021/07/10 10:16:43;;;;;;;;;;;;;;;33.91;30.30;100083.38;5110123;28;19924;-60
2021/07/10 10:19:10;;;;;;;;;;;;;;;33.93;30.08;100084.00;5113845;28;19920;-58
2021/07/10 10:21:35;;;;;;;;;;;;;;;33.87;30.20;100084.88;5114333;28;19930;-59
2021/07/10 10:24:01;;;;;;;;;;;;;;;33.83;30.18;100084.53;5096095;28;19916;-59
2021/07/10 10:26:27;;;;;;;;;;;;;;;33.87;30.11;100077.59;5114198;28;20315;-58
2021/07/10 10:28:53;;;;;;;;;;;;;;;33.92;29.94;100075.03;5114447;28;19923;-62
2021/07/10 10:31:18;;;;;;;;;;;;;;;34.00;29.80;100088.25;5095606;28;19976;-62
2021/07/10 10:33:46;;;;;;;;;;;;;;;34.08;29.63;100076.25;5096102;28;20346;-61
2021/07/10 10:36:12;;;;;;;;;;;;;;;34.16;29.75;100085.97;5095648;28;19928;-61
2021/07/10 10:38:38;;;;;;;;;;;;;;;34.20;29.63;100077.13;5114136;28;20300;-61
2021/07/10 10:41:04;;;;;;;;;;;;;;;34.22;29.59;100077.75;5113704;28;19924;-61
2021/07/10 10:43:29;;;;;;;;;;;;;;;34.24;29.83;100072.06;5095837;28;20011;-62
2021/07/10 10:45:56;;;;;;;;;;;;;;;34.28;29.53;100078.69;5113859;28;19963;-61
2021/07/10 10:48:35;;;;;;;;;;;;;;;34.33;29.52;100067.97;5113710;28;20010;-61
2021/07/10 10:51:01;;;;;;;;;;;;;;;34.32;29.67;100074.47;5113622;28;19930;-62
2021/07/10 10:53:26;;;;;;;;;;;;;;;34.25;29.61;100062.88;5113927;28;20025;-61
2021/07/10 10:55:52;;;;;;;;;;;;;;;34.28;29.68;100073.25;5095603;28;20468;-62
2021/07/10 10:58:22;;;;;;;;;;;;;;;34.17;29.70;100065.91;5113730;28;19931;-62
2021/07/10 11:00:49;;;;;;;;;;;;;;;34.01;30.09;100068.22;5113914;28;19927;-62
2021/07/10 11:03:20;;;;;;;;;;;;;;;33.89;30.25;100058.41;5113288;28;19930;-62
2021/07/10 11:05:47;;;;;;;;;;;;;;;33.80;30.45;100070.63;5113466;28;19924;-61
2021/07/10 11:08:19;;;;;;;;;;;;;;;33.75;30.73;100065.88;5113414;28;19924;-61
2021/07/10 11:10:46;;;;;;;;;;;;;;;33.75;30.65;100065.88;5113571;28;19946;-61
2021/07/10 11:13:31;;;;;;;;;;;;;;;33.79;30.70;100063.53;5113254;28;19995;-62
2021/07/10 11:16:06;;;;;;;;;;;;;;;33.77;30.79;100050.22;5113233;28;19923;-59
2021/07/10 11:18:51;;;;;;;;;;;;;;;33.87;30.21;100049.66;5113919;28;19923;-60
2021/07/10 11:21:37;;;;;;;;;;;;;;;33.92;30.24;100047.09;5113117;28;19924;-57
2021/07/10 11:24:14;;;;;;;;;;;;;;;33.93;30.14;100049.56;5095853;28;19924;-58
2021/07/10 11:26:39;;;;;;;;;;;;;;;33.98;30.15;100038.88;5113443;28;20026;-63
2021/07/10 11:29:07;;;;;;;;;;;;;;;34.01;30.24;100035.69;5112043;28;20019;-59
2021/07/10 11:31:33;;;;;;;;;;;;;;;34.04;30.30;100035.22;5095358;28;19924;-56
2021/07/10 11:34:07;;;;;;;;;;;;;;;34.09;30.08;100042.66;5095293;28;19923;-60
2021/07/10 11:36:52;;;;;;;;;;;;;;;34.09;29.91;100041.84;5113091;28;19927;-59
2021/07/10 11:39:25;;;;;;;;;;;;;;;34.10;29.89;100038.06;5113178;28;19923;-60
2021/07/10 11:41:51;;;;;;;;;;;;;;;34.08;30.26;100043.72;5112937;28;19923;-60
2021/07/10 11:44:17;;;;;;;;;;;;;;;34.04;30.14;100045.22;5112967;28;20342;-60
2021/07/10 11:46:57;;;;;;;;;;;;;;;33.94;30.16;100045.81;5078215;28;19931;-60
2021/07/10 11:49:35;;;;;;;;;;;;;;;33.82;30.33;100036.81;5113391;28;19924;-60
2021/07/10 11:52:02;;;;;;;;;;;;;;;33.74;30.88;100045.25;5095223;28;19924;-60
2021/07/10 11:54:29;;;;;;;;;;;;;;;33.65;30.98;100043.09;5112885;28;20063;-60
2021/07/10 11:56:55;;;;;;;;;;;;;;;33.58;31.15;100040.44;5112639;28;19923;-59
2021/07/10 11:59:21;;;;;;;;;;;;;;;33.53;31.28;100037.59;5094069;28;20281;-60
2021/07/10 12:01:47;;;;;;;;;;;;;;;33.49;30.95;100041.81;5094320;28;19981;-60
2021/07/10 12:04:13;;;;;;;;;;;;;;;33.45;31.14;100043.31;5112015;28;19928;-61
2021/07/10 12:06:39;;;;;;;;;;;;;;;33.40;31.52;100048.63;5112417;28;19930;-60
2021/07/10 12:09:05;;;;;;;;;;;;;;;33.36;31.61;100042.00;5112104;28;19924;-59
2021/07/10 12:11:31;;;;;;;;;;;;;;;33.36;31.64;100036.56;5112147;28;19923;-59
2021/07/10 12:14:06;;;;;;;;;;;;;;;33.32;31.62;100029.97;5112166;28;19924;-60
2021/07/10 12:16:32;;;;;;;;;;;;;;;33.36;31.58;100031.16;5093958;28;20312;-59
2021/07/10 12:18:58;;;;;;;;;;;;;;;33.44;31.16;100028.16;5093991;28;19930;-59
2021/07/10 12:21:24;;;;;;;;;;;;;;;33.49;31.20;100026.41;5111731;28;19982;-59
2021/07/10 12:23:51;;;;;;;;;;;;;;;33.55;nan;100030.06;5093887;28;19925;-59
2021/07/10 12:26:17;;;;;;;;;;;;;;;33.59;31.17;100028.56;5111702;28;20448;-59
2021/07/10 12:28:47;;;;;;;;;;;;;;;33.62;31.08;100019.19;5112125;28;19923;-58
2021/07/10 12:31:16;;;;;;;;;;;;;;;33.67;30.76;100022.03;5111752;28;19924;-59
2021/07/10 12:33:50;;;;;;;;;;;;;;;33.68;31.17;100016.38;5093989;28;19931;-58
2021/07/10 12:36:16;;;;;;;;;;;;;;;33.69;31.15;100014.50;5111489;28;19920;-60